Time;durP1;ratioP1;P1;durP2;ratioP2;P2;SDS_P1;SDS_P2;PMS_P1;PMS_P2;Temp;Humidity;BMP_temperature;BMP_pressure;BME280_temperature;BME280_humidity;BME280_pressure;Samples;Min_cycle;Max_cycle;Signal;HPM_P1;HPM_P2
2022/08/03 00:01:54;;;;;;;8.70;3.72;;;;;;;;;;5006780;28;20037;-50
2022/08/03 00:04:40;;;;;;;9.32;3.80;;;;;;;;;;5009040;28;20093;-49
2022/08/03 00:07:25;;;;;;;9.93;4.35;;;;;;;;;;5007057;28;20208;-54
2022/08/03 00:10:12;;;;;;;5.95;3.95;;;;;;;;;;5007815;28;20036;-49
2022/08/03 00:12:58;;;;;;;7.93;4.15;;;;;;;;;;5008626;28;20034;-53
2022/08/03 00:15:44;;;;;;;8.18;4.15;;;;;;;;;;5007798;28;20041;-50
2022/08/03 00:18:30;;;;;;;4.50;3.72;;;;;;;;;;5008860;28;20438;-51
2022/08/03 00:21:15;;;;;;;4.90;3.22;;;;;;;;;;5010359;28;20026;-54
2022/08/03 00:24:01;;;;;;;10.82;4.18;;;;;;;;;;5006335;28;20037;-52
2022/08/03 00:26:47;;;;;;;5.53;3.85;;;;;;;;;;5006646;28;20606;-51
2022/08/03 00:29:33;;;;;;;13.43;4.20;;;;;;;;;;5005428;28;20394;-49
2022/08/03 00:32:18;;;;;;;6.82;3.95;;;;;;;;;;5005681;28;20037;-52
2022/08/03 00:35:05;;;;;;;8.35;4.25;;;;;;;;;;5005593;28;20117;-54
2022/08/03 00:37:51;;;;;;;6.65;4.10;;;;;;;;;;5004836;28;20060;-52
2022/08/03 00:40:36;;;;;;;6.40;3.50;;;;;;;;;;5005201;28;20040;-51
2022/08/03 00:43:25;;;;;;;7.57;4.18;;;;;;;;;;5008937;28;20029;-53
2022/08/03 00:46:11;;;;;;;7.97;3.85;;;;;;;;;;5006640;28;20061;-52
2022/08/03 00:48:57;;;;;;;5.78;3.63;;;;;;;;;;5009046;28;20140;-53
2022/08/03 00:51:42;;;;;;;7.45;4.35;;;;;;;;;;5006557;28;20072;-52
2022/08/03 00:54:29;;;;;;;6.90;4.13;;;;;;;;;;5006754;28;20509;-51
2022/08/03 00:57:14;;;;;;;6.60;4.47;;;;;;;;;;5008118;28;20041;-49
2022/08/03 01:00:00;;;;;;;8.85;4.13;;;;;;;;;;5005326;28;20036;-51
2022/08/03 01:02:46;;;;;;;12.93;4.82;;;;;;;;;;5005121;28;20117;-54
2022/08/03 01:06:18;;;;;;;11.18;4.50;;;;;;;;;;5006036;28;20034;-49
2022/08/03 01:09:09;;;;;;;13.10;5.20;;;;;;;;;;5004021;28;20038;-50
2022/08/03 01:12:32;;;;;;;8.82;4.80;;;;;;;;;;5003450;28;20079;-50
2022/08/03 01:15:28;;;;;;;11.93;4.63;;;;;;;;;;5006710;28;20443;-50
2022/08/03 01:18:19;;;;;;;10.57;4.20;;;;;;;;;;5002769;28;20452;-48
2022/08/03 01:21:11;;;;;;;5.47;3.83;;;;;;;;;;5006893;28;20069;-49
2022/08/03 01:23:56;;;;;;;11.60;3.97;;;;;;;;;;5007600;28;20036;-51
2022/08/03 01:26:59;;;;;;;8.98;4.30;;;;;;;;;;5004758;28;20041;-51
2022/08/03 01:29:58;;;;;;;11.05;4.68;;;;;;;;;;5006596;28;20677;-51
2022/08/03 01:32:59;;;;;;;9.82;4.80;;;;;;;;;;5006307;28;20026;-50
2022/08/03 01:35:49;;;;;;;11.82;4.20;;;;;;;;;;5003354;28;20034;-53
2022/08/03 01:38:41;;;;;;;11.18;5.07;;;;;;;;;;5002806;28;20058;-54
2022/08/03 01:41:34;;;;;;;8.93;4.43;;;;;;;;;;5005398;28;20112;-48
2022/08/03 01:44:22;;;;;;;9.30;5.30;;;;;;;;;;5008037;28;20104;-49
2022/08/03 01:47:10;;;;;;;7.07;4.60;;;;;;;;;;5001786;28;20033;-52
2022/08/03 01:49:56;;;;;;;8.07;4.97;;;;;;;;;;5007455;28;20474;-52
2022/08/03 01:52:44;;;;;;;10.88;4.68;;;;;;;;;;5003308;28;20037;-53
2022/08/03 01:55:32;;;;;;;10.00;4.90;;;;;;;;;;5004745;28;20048;-50
2022/08/03 01:58:20;;;;;;;6.03;3.72;;;;;;;;;;5005076;28;20049;-52
2022/08/03 02:01:08;;;;;;;6.85;3.90;;;;;;;;;;5006011;28;20026;-54
2022/08/03 02:03:58;;;;;;;9.90;4.13;;;;;;;;;;5006944;28;20594;-49
2022/08/03 02:06:46;;;;;;;13.63;5.00;;;;;;;;;;5002760;28;20105;-51
2022/08/03 02:09:33;;;;;;;11.73;4.75;;;;;;;;;;5005301;28;20109;-56
2022/08/03 02:12:21;;;;;;;8.70;4.72;;;;;;;;;;5007578;28;20121;-49
2022/08/03 02:15:08;;;;;;;10.05;4.63;;;;;;;;;;5005656;28;20034;-51
2022/08/03 02:17:57;;;;;;;10.27;4.90;;;;;;;;;;5008249;28;20087;-54
2022/08/03 02:20:43;;;;;;;10.85;4.75;;;;;;;;;;5003827;28;20026;-50
2022/08/03 02:23:30;;;;;;;10.65;5.13;;;;;;;;;;5001950;28;20042;-50
2022/08/03 02:26:19;;;;;;;11.40;5.68;;;;;;;;;;5004481;28;20151;-49
2022/08/03 02:29:12;;;;;;;7.47;5.10;;;;;;;;;;5005068;28;20033;-53
2022/08/03 02:32:00;;;;;;;7.10;4.65;;;;;;;;;;5004673;28;20033;-49
2022/08/03 02:34:49;;;;;;;9.00;4.72;;;;;;;;;;5007200;28;20037;-50
2022/08/03 02:37:42;;;;;;;6.47;4.57;;;;;;;;;;5008057;28;20032;-52
2022/08/03 02:40:30;;;;;;;8.98;4.45;;;;;;;;;;5003648;28;20030;-52
2022/08/03 02:43:21;;;;;;;6.80;4.22;;;;;;;;;;5004662;28;20040;-48
2022/08/03 02:46:09;;;;;;;5.68;4.70;;;;;;;;;;5003850;28;20030;-50
2022/08/03 02:48:57;;;;;;;10.35;4.40;;;;;;;;;;5005477;28;20066;-53
2022/08/03 02:51:43;;;;;;;4.22;3.83;;;;;;;;;;5006011;28;20462;-48
2022/08/03 02:54:31;;;;;;;6.85;4.68;;;;;;;;;;5002987;28;20478;-49
2022/08/03 02:57:20;;;;;;;6.10;4.22;;;;;;;;;;5000677;28;20050;-52
2022/08/03 03:00:07;;;;;;;4.78;3.88;;;;;;;;;;5008575;28;20040;-51
2022/08/03 03:02:54;;;;;;;7.72;4.53;;;;;;;;;;5004596;28;20033;-50
2022/08/03 03:05:42;;;;;;;9.32;4.18;;;;;;;;;;5005257;28;20025;-51
2022/08/03 03:08:30;;;;;;;9.23;4.82;;;;;;;;;;5002948;28;20554;-53
2022/08/03 03:11:19;;;;;;;6.55;4.60;;;;;;;;;;5006740;28;20037;-50
2022/08/03 03:14:08;;;;;;;9.65;4.18;;;;;;;;;;5001950;28;20441;-49
2022/08/03 03:16:54;;;;;;;9.00;4.68;;;;;;;;;;5005842;28;20030;-50
2022/08/03 03:19:41;;;;;;;9.63;3.97;;;;;;;;;;5005545;28;20218;-49
2022/08/03 03:22:29;;;;;;;7.78;4.07;;;;;;;;;;5005896;28;20411;-49
2022/08/03 03:25:16;;;;;;;7.70;4.25;;;;;;;;;;5010463;28;20542;-52
2022/08/03 03:28:03;;;;;;;5.30;3.92;;;;;;;;;;5009006;28;20068;-48
2022/08/03 03:30:49;;;;;;;10.00;4.53;;;;;;;;;;5006069;28;20037;-49
2022/08/03 03:33:36;;;;;;;18.90;4.20;;;;;;;;;;5006333;28;20092;-50
2022/08/03 03:36:22;;;;;;;5.78;3.75;;;;;;;;;;5003971;28;20030;-49
2022/08/03 03:39:07;;;;;;;6.97;4.22;;;;;;;;;;5009372;28;20033;-51
2022/08/03 03:41:53;;;;;;;6.15;3.80;;;;;;;;;;5008698;28;20040;-50
2022/08/03 03:44:39;;;;;;;10.13;4.30;;;;;;;;;;5006247;28;20117;-49
2022/08/03 03:47:25;;;;;;;4.20;3.80;;;;;;;;;;5005925;28;20040;-49
2022/08/03 03:50:11;;;;;;;8.77;3.72;;;;;;;;;;5007608;28;20030;-55
2022/08/03 03:52:57;;;;;;;8.60;3.92;;;;;;;;;;5007909;28;20030;-49
2022/08/03 03:55:43;;;;;;;3.92;3.60;;;;;;;;;;5007346;28;20394;-48
2022/08/03 03:58:30;;;;;;;8.00;4.18;;;;;;;;;;5008835;28;20050;-48
2022/08/03 04:01:16;;;;;;;9.25;3.88;;;;;;;;;;5007732;28;20042;-51
2022/08/03 04:10:57;;;;;;;7.50;3.45;;;;;;;;;;5008855;28;20124;-50
2022/08/03 04:13:32;;;;;;;5.82;3.53;;;;;;;;;;5006228;28;20431;-48
2022/08/03 04:16:22;;;;;;;9.38;3.90;;;;;;;;;;5008034;28;20041;-50
2022/08/03 04:19:12;;;;;;;5.40;3.58;;;;;;;;;;5003550;28;20046;-52
2022/08/03 04:22:02;;;;;;;3.75;3.38;;;;;;;;;;5007766;28;20030;-50
2022/08/03 04:24:52;;;;;;;8.90;3.70;;;;;;;;;;5005923;28;20072;-49
2022/08/03 04:27:40;;;;;;;4.32;3.45;;;;;;;;;;5006694;28;20044;-48
2022/08/03 04:30:27;;;;;;;5.65;3.60;;;;;;;;;;5007182;28;20037;-50
2022/08/03 04:33:15;;;;;;;9.07;3.63;;;;;;;;;;5006947;28;20018;-52
2022/08/03 04:36:05;;;;;;;5.72;3.35;;;;;;;;;;5002159;28;20096;-48
2022/08/03 04:39:02;;;;;;;6.43;3.60;;;;;;;;;;5007809;28;20030;-49
2022/08/03 04:41:48;;;;;;;5.85;3.70;;;;;;;;;;5005911;28;20080;-50
2022/08/03 04:44:40;;;;;;;10.50;3.47;;;;;;;;;;5006691;28;20045;-50
2022/08/03 04:47:26;;;;;;;6.93;3.65;;;;;;;;;;5007114;28;20026;-51
2022/08/03 04:50:12;;;;;;;7.10;3.55;;;;;;;;;;5006971;28;20034;-50
2022/08/03 04:52:58;;;;;;;6.82;3.55;;;;;;;;;;5003998;28;20049;-52
2022/08/03 04:55:44;;;;;;;3.50;3.30;;;;;;;;;;5008981;28;20091;-49
2022/08/03 04:58:30;;;;;;;5.05;3.30;;;;;;;;;;5008321;28;20042;-48
2022/08/03 05:01:16;;;;;;;5.10;3.38;;;;;;;;;;5008731;28;20379;-49
2022/08/03 05:04:02;;;;;;;7.90;3.20;;;;;;;;;;5007312;28;20029;-51
2022/08/03 05:06:48;;;;;;;3.28;2.90;;;;;;;;;;5006719;28;20021;-52
2022/08/03 05:09:37;;;;;;;10.50;3.67;;;;;;;;;;5004061;28;20073;-48
2022/08/03 05:12:22;;;;;;;6.93;3.35;;;;;;;;;;5007627;28;20038;-51
2022/08/03 05:15:09;;;;;;;4.18;2.97;;;;;;;;;;5007130;28;20045;-51
2022/08/03 05:17:54;;;;;;;5.63;3.20;;;;;;;;;;5007278;28;20040;-52
2022/08/03 05:20:40;;;;;;;5.15;3.10;;;;;;;;;;5006665;28;20018;-53
2022/08/03 05:23:26;;;;;;;5.70;3.28;;;;;;;;;;5008237;28;20025;-53
2022/08/03 05:26:12;;;;;;;10.13;3.03;;;;;;;;;;5003645;28;20041;-48
2022/08/03 05:28:57;;;;;;;3.92;2.90;;;;;;;;;;5007126;28;20124;-48
2022/08/03 05:31:43;;;;;;;7.47;3.38;;;;;;;;;;5006877;28;20022;-48
2022/08/03 05:34:29;;;;;;;6.40;3.33;;;;;;;;;;5005292;28;20049;-50
2022/08/03 05:37:15;;;;;;;14.52;3.78;;;;;;;;;;5005497;28;20033;-48
2022/08/03 05:40:00;;;;;;;4.45;3.38;;;;;;;;;;5004724;28;20033;-50
2022/08/03 05:42:46;;;;;;;10.35;3.45;;;;;;;;;;5008112;28;20112;-49
2022/08/03 05:45:32;;;;;;;4.45;3.03;;;;;;;;;;5005012;28;20391;-52
2022/08/03 05:48:18;;;;;;;3.47;3.17;;;;;;;;;;5005184;28;20076;-50
2022/08/03 05:51:09;;;;;;;6.60;3.38;;;;;;;;;;5004449;28;20057;-54
2022/08/03 05:53:55;;;;;;;5.47;3.30;;;;;;;;;;5006446;28;20471;-52
2022/08/03 05:56:41;;;;;;;7.30;3.15;;;;;;;;;;5005665;28;20037;-52
2022/08/03 05:59:27;;;;;;;8.25;3.10;;;;;;;;;;5005842;28;20050;-49
2022/08/03 06:02:13;;;;;;;8.82;3.25;;;;;;;;;;5002735;28;20437;-48
2022/08/03 06:04:59;;;;;;;5.50;3.40;;;;;;;;;;5005500;28;20060;-52
2022/08/03 06:07:45;;;;;;;8.10;3.40;;;;;;;;;;5006978;28;20032;-49
2022/08/03 06:10:32;;;;;;;10.57;3.40;;;;;;;;;;5002783;28;20033;-52
2022/08/03 06:13:17;;;;;;;7.15;3.30;;;;;;;;;;5003436;28;20038;-51
2022/08/03 06:16:04;;;;;;;6.55;3.35;;;;;;;;;;5006055;28;20037;-51
2022/08/03 06:18:49;;;;;;;6.93;3.30;;;;;;;;;;5001903;28;20026;-52
2022/08/03 06:21:35;;;;;;;4.97;2.92;;;;;;;;;;5005920;28;20033;-50
2022/08/03 06:24:21;;;;;;;3.50;3.03;;;;;;;;;;5005145;28;20172;-51
2022/08/03 06:27:07;;;;;;;6.88;3.05;;;;;;;;;;5004330;28;20026;-53
2022/08/03 06:29:52;;;;;;;5.32;3.00;;;;;;;;;;5003730;28;20034;-50
2022/08/03 06:32:39;;;;;;;7.38;3.30;;;;;;;;;;5005581;28;20049;-49
2022/08/03 06:35:26;;;;;;;11.93;2.80;;;;;;;;;;5004442;28;20048;-55
2022/08/03 06:38:12;;;;;;;3.38;3.10;;;;;;;;;;5005811;28;20060;-54
2022/08/03 06:40:58;;;;;;;3.33;2.55;;;;;;;;;;5003950;28;20478;-50
2022/08/03 06:43:43;;;;;;;6.07;2.97;;;;;;;;;;5005060;28;20117;-49
2022/08/03 06:46:29;;;;;;;4.18;2.80;;;;;;;;;;5002453;28;20033;-49
2022/08/03 06:49:15;;;;;;;7.38;3.10;;;;;;;;;;5008636;28;20420;-48
2022/08/03 06:52:00;;;;;;;12.98;3.67;;;;;;;;;;5004771;28;20087;-55
2022/08/03 06:54:46;;;;;;;4.13;3.00;;;;;;;;;;5002648;28;20042;-51
2022/08/03 06:57:32;;;;;;;10.38;3.30;;;;;;;;;;5007584;28;20129;-50
2022/08/03 07:00:19;;;;;;;6.35;2.70;;;;;;;;;;5007846;28;20038;-55
2022/08/03 07:03:05;;;;;;;6.90;2.92;;;;;;;;;;5010978;28;20038;-52
2022/08/03 07:05:50;;;;;;;6.93;2.97;;;;;;;;;;5007463;28;20036;-51
2022/08/03 07:08:36;;;;;;;11.63;3.05;;;;;;;;;;5010200;28;20052;-48
2022/08/03 07:11:22;;;;;;;9.18;3.03;;;;;;;;;;5009414;28;20438;-52
2022/08/03 07:14:08;;;;;;;4.25;2.53;;;;;;;;;;5007717;28;20026;-49
2022/08/03 07:16:53;;;;;;;5.35;2.95;;;;;;;;;;5010378;28;20435;-49
2022/08/03 07:19:39;;;;;;;13.73;3.22;;;;;;;;;;5006947;28;20061;-49
2022/08/03 07:22:25;;;;;;;8.18;2.63;;;;;;;;;;5005559;28;20048;-48
2022/08/03 07:25:11;;;;;;;5.03;2.83;;;;;;;;;;5007957;28;20035;-50
2022/08/03 07:27:57;;;;;;;18.30;3.55;;;;;;;;;;5005393;28;20032;-52
2022/08/03 07:30:42;;;;;;;101.68;6.18;;;;;;;;;;5009154;28;20025;-50
2022/08/03 07:33:28;;;;;;;5.40;2.45;;;;;;;;;;5009502;28;20040;-52
2022/08/03 07:36:14;;;;;;;3.58;2.65;;;;;;;;;;5008001;28;20044;-52
2022/08/03 07:38:59;;;;;;;10.50;3.05;;;;;;;;;;5003382;28;20077;-52
2022/08/03 07:41:46;;;;;;;11.82;3.50;;;;;;;;;;5008538;28;20046;-52
2022/08/03 07:44:31;;;;;;;5.70;3.30;;;;;;;;;;5004950;28;20176;-51
2022/08/03 07:47:27;;;;;;;3.67;3.10;;;;;;;;;;5006725;28;20038;-51
2022/08/03 07:50:12;;;;;;;9.65;2.70;;;;;;;;;;5008695;28;20401;-51
2022/08/03 07:52:58;;;;;;;5.68;2.88;;;;;;;;;;5005272;28;20034;-52
2022/08/03 07:55:44;;;;;;;8.63;2.67;;;;;;;;;;5007192;28;20074;-49
2022/08/03 07:58:30;;;;;;;8.88;2.67;;;;;;;;;;5007915;28;20061;-51
2022/08/03 08:01:18;;;;;;;7.20;2.65;;;;;;;;;;5007352;28;20033;-53
2022/08/03 08:04:03;;;;;;;11.52;3.20;;;;;;;;;;5007270;28;20975;-51
2022/08/03 08:06:49;;;;;;;11.82;2.60;;;;;;;;;;5006167;28;20045;-53
2022/08/03 08:09:35;;;;;;;12.85;2.85;;;;;;;;;;5003962;28;20104;-53
2022/08/03 08:12:21;;;;;;;10.07;2.80;;;;;;;;;;5005183;28;20058;-50
2022/08/03 08:15:08;;;;;;;9.93;3.17;;;;;;;;;;5005615;28;20121;-52
2022/08/03 08:17:55;;;;;;;5.85;2.70;;;;;;;;;;5008070;28;20092;-55
2022/08/03 08:20:41;;;;;;;8.40;2.63;;;;;;;;;;5007217;28;20430;-51
2022/08/03 08:23:27;;;;;;;7.30;2.63;;;;;;;;;;5005761;28;20029;-52
2022/08/03 08:26:13;;;;;;;4.30;2.42;;;;;;;;;;5008219;28;20390;-51
2022/08/03 08:28:59;;;;;;;12.25;3.03;;;;;;;;;;5004477;28;20748;-52
2022/08/03 08:31:45;;;;;;;17.30;2.90;;;;;;;;;;5007393;28;20592;-50
2022/08/03 08:34:31;;;;;;;7.65;2.92;;;;;;;;;;5006175;28;20487;-50
2022/08/03 08:37:16;;;;;;;12.65;3.20;;;;;;;;;;5008792;28;20053;-55
2022/08/03 08:40:03;;;;;;;5.00;3.33;;;;;;;;;;5007862;28;20052;-51
2022/08/03 08:42:49;;;;;;;5.53;2.60;;;;;;;;;;5007973;28;20069;-51
2022/08/03 08:45:36;;;;;;;8.13;3.10;;;;;;;;;;5003752;28;20038;-51
2022/08/03 08:48:24;;;;;;;8.02;2.55;;;;;;;;;;5004099;28;20140;-56
2022/08/03 08:51:12;;;;;;;14.57;2.88;;;;;;;;;;5009467;28;20022;-53
2022/08/03 08:54:01;;;;;;;9.68;2.53;;;;;;;;;;5006648;28;20508;-51
2022/08/03 08:56:50;;;;;;;10.60;2.90;;;;;;;;;;5006312;28;20042;-50
2022/08/03 08:59:36;;;;;;;8.07;3.05;;;;;;;;;;5010102;28;20117;-54
2022/08/03 09:02:23;;;;;;;6.30;2.83;;;;;;;;;;5008498;28;20108;-53
2022/08/03 09:05:18;;;;;;;5.15;2.75;;;;;;;;;;5005828;28;20137;-52
2022/08/03 09:08:05;;;;;;;7.03;2.67;;;;;;;;;;5004809;28;20034;-52
2022/08/03 09:10:50;;;;;;;16.13;3.00;;;;;;;;;;5005055;28;20684;-52
2022/08/03 09:13:36;;;;;;;15.70;3.25;;;;;;;;;;5005519;28;20033;-51
2022/08/03 09:16:22;;;;;;;11.20;3.13;;;;;;;;;;5008597;28;20080;-55
2022/08/03 09:19:12;;;;;;;11.68;2.78;;;;;;;;;;5004326;28;20038;-51
2022/08/03 09:22:16;;;;;;;9.75;3.10;;;;;;;;;;5005164;28;20037;-49
2022/08/03 09:25:10;;;;;;;14.40;2.92;;;;;;;;;;5004270;28;20053;-53
2022/08/03 09:28:07;;;;;;;10.18;2.85;;;;;;;;;;5007532;28;20590;-56
2022/08/03 09:30:59;;;;;;;14.90;3.10;;;;;;;;;;5004117;28;20073;-54
2022/08/03 09:33:47;;;;;;;8.98;2.58;;;;;;;;;;5004791;28;20123;-49
2022/08/03 09:36:47;;;;;;;7.20;2.63;;;;;;;;;;5006896;28;20042;-53
2022/08/03 09:39:36;;;;;;;20.23;2.83;;;;;;;;;;5004620;28;20141;-54
2022/08/03 09:42:22;;;;;;;6.65;2.65;;;;;;;;;;5005317;28;20037;-56
2022/08/03 09:45:24;;;;;;;18.38;2.90;;;;;;;;;;5007924;28;20030;-55
2022/08/03 09:48:28;;;;;;;7.00;2.63;;;;;;;;;;5008136;28;20026;-54
2022/08/03 09:51:17;;;;;;;6.95;2.65;;;;;;;;;;5002931;28;20065;-56
2022/08/03 09:54:03;;;;;;;7.07;2.58;;;;;;;;;;5004196;28;20052;-55
2022/08/03 09:56:49;;;;;;;12.90;2.75;;;;;;;;;;5003391;28;20068;-53
2022/08/03 09:59:35;;;;;;;11.77;2.75;;;;;;;;;;5011194;28;20040;-55
2022/08/03 10:02:23;;;;;;;13.27;2.88;;;;;;;;;;5006145;28;20491;-52
2022/08/03 10:05:11;;;;;;;6.45;2.53;;;;;;;;;;5006685;28;20486;-56
2022/08/03 10:07:56;;;;;;;8.15;2.88;;;;;;;;;;5007521;28;20172;-55
2022/08/03 10:10:44;;;;;;;7.68;2.75;;;;;;;;;;5004636;28;20125;-50
2022/08/03 10:13:30;;;;;;;6.10;2.75;;;;;;;;;;5004695;28;20033;-51
2022/08/03 10:16:16;;;;;;;7.10;2.63;;;;;;;;;;5004810;28;20042;-53
2022/08/03 10:19:03;;;;;;;7.88;2.83;;;;;;;;;;5003836;28;20108;-55
2022/08/03 10:21:54;;;;;;;9.18;2.40;;;;;;;;;;5005562;28;20123;-54
2022/08/03 10:24:48;;;;;;;7.07;2.83;;;;;;;;;;5006247;28;20037;-56
2022/08/03 10:27:38;;;;;;;4.78;2.75;;;;;;;;;;5004974;28;20117;-56
2022/08/03 10:30:26;;;;;;;10.38;2.50;;;;;;;;;;5004212;28;20382;-56
2022/08/03 10:33:18;;;;;;;7.72;2.25;;;;;;;;;;5007750;28;20041;-56
2022/08/03 10:36:05;;;;;;;;;;;;;;;;;;5005360;28;20029;-52
2022/08/03 10:38:52;;;;;;;3.65;2.65;;;;;;;;;;5006488;28;19917;-56
2022/08/03 10:41:41;;;;;;;7.97;2.55;;;;;;;;;;5004649;28;20081;-53
2022/08/03 10:44:35;;;;;;;6.20;2.70;;;;;;;;;;5001235;28;20089;-53
2022/08/03 10:47:21;;;;;;;5.20;2.47;;;;;;;;;;5005581;28;20034;-52
2022/08/03 10:50:07;;;;;;;6.35;2.55;;;;;;;;;;5007850;28;20065;-55
2022/08/03 10:52:57;;;;;;;9.20;2.28;;;;;;;;;;5006321;28;20549;-54
2022/08/03 10:58:53;;;;;;;9.85;2.60;;;;;;;;;;5004922;28;20058;-56
2022/08/03 11:01:49;;;;;;;10.82;2.50;;;;;;;;;;5006197;28;20402;-55
2022/08/03 11:04:35;;;;;;;6.18;2.35;;;;;;;;;;5004793;28;20042;-56
2022/08/03 11:07:23;;;;;;;6.32;2.45;;;;;;;;;;5006363;28;20087;-55
2022/08/03 11:10:29;;;;;;;6.10;2.50;;;;;;;;;;5006482;28;20026;-55
2022/08/03 11:13:17;;;;;;;10.50;2.72;;;;;;;;;;5006467;28;20403;-56
2022/08/03 11:16:18;;;;;;;8.20;2.20;;;;;;;;;;5002927;28;20030;-55
2022/08/03 11:19:06;;;;;;;5.03;2.25;;;;;;;;;;5005882;28;20034;-54
2022/08/03 11:21:53;;;;;;;5.78;2.22;;;;;;;;;;5006799;28;20420;-52
2022/08/03 11:24:39;;;;;;;4.13;2.17;;;;;;;;;;5004632;28;20049;-55
2022/08/03 11:27:29;;;;;;;8.65;2.28;;;;;;;;;;5005084;28;20026;-53
2022/08/03 11:30:18;;;;;;;6.38;2.33;;;;;;;;;;5001416;28;20501;-53
2022/08/03 11:33:03;;;;;;;4.20;2.28;;;;;;;;;;5000871;28;20489;-55
2022/08/03 11:36:01;;;;;;;9.10;2.33;;;;;;;;;;5004414;28;20041;-53
2022/08/03 11:39:19;;;;;;;6.13;2.20;;;;;;;;;;5003207;28;20030;-54
2022/08/03 11:42:34;;;;;;;8.05;2.50;;;;;;;;;;4965339;28;20043;-53
2022/08/03 11:45:20;;;;;;;4.40;1.85;;;;;;;;;;4956142;28;20042;-56
2022/08/03 11:48:15;;;;;;;2.78;1.58;;;;;;;;;;4968636;28;20030;-57
2022/08/03 11:51:02;;;;;;;4.32;2.00;;;;;;;;;;4966724;28;20069;-51
2022/08/03 11:54:04;;;;;;;9.88;2.20;;;;;;;;;;4966950;28;20054;-55
2022/08/03 11:56:50;;;;;;;4.13;1.80;;;;;;;;;;4969662;28;20045;-54
2022/08/03 11:59:37;;;;;;;5.75;2.22;;;;;;;;;;4966974;28;20030;-54
2022/08/03 12:02:22;;;;;;;3.45;1.80;;;;;;;;;;4967116;28;20030;-53
2022/08/03 12:05:08;;;;;;;7.18;2.10;;;;;;;;;;4966903;28;20050;-53
2022/08/03 12:07:54;;;;;;;10.70;2.10;;;;;;;;;;4967997;28;20562;-52
2022/08/03 12:10:45;;;;;;;9.15;1.90;;;;;;;;;;4968659;28;20046;-54
2022/08/03 12:13:41;;;;;;;5.95;1.80;;;;;;;;;;4965549;28;20054;-55
2022/08/03 12:16:27;;;;;;;8.57;2.10;;;;;;;;;;4968262;28;20086;-55
2022/08/03 12:19:14;;;;;;;6.55;2.10;;;;;;;;;;5001069;28;20046;-54
2022/08/03 12:21:59;;;;;;;9.77;2.40;;;;;;;;;;5002089;28;20399;-52
2022/08/03 12:24:45;;;;;;;11.63;2.17;;;;;;;;;;5005057;28;20053;-55
2022/08/03 12:27:31;;;;;;;6.53;1.98;;;;;;;;;;5008849;28;20033;-54
2022/08/03 12:30:17;;;;;;;3.30;1.90;;;;;;;;;;5006555;28;20113;-52
2022/08/03 12:33:23;;;;;;;7.65;1.95;;;;;;;;;;5003222;28;20037;-54
2022/08/03 12:36:09;;;;;;;7.00;2.10;;;;;;;;;;5005589;28;20073;-54
2022/08/03 12:39:00;;;;;;;5.10;2.20;;;;;;;;;;5006119;28;20030;-55
2022/08/03 12:41:51;;;;;;;;;;;;;;;;;;5009478;28;20511;-52
2022/08/03 12:44:36;;;;;;;10.10;2.22;;;;;;;;;;5010333;28;19983;-55
2022/08/03 12:47:22;;;;;;;4.55;1.85;;;;;;;;;;5006571;28;20022;-54
2022/08/03 12:50:23;;;;;;;7.05;2.13;;;;;;;;;;5008943;28;20025;-55
2022/08/03 12:53:09;;;;;;;6.20;2.35;;;;;;;;;;5004379;28;20037;-54
2022/08/03 12:56:01;;;;;;;3.78;2.10;;;;;;;;;;5003959;28;20558;-50
2022/08/03 12:58:47;;;;;;;6.32;2.30;;;;;;;;;;5004495;28;20058;-57
2022/08/03 13:01:36;;;;;;;13.00;1.98;;;;;;;;;;5006740;28;20025;-55
2022/08/03 13:04:33;;;;;;;6.28;2.10;;;;;;;;;;5004819;28;20053;-54
2022/08/03 13:07:20;;;;;;;6.53;2.30;;;;;;;;;;5006766;28;20033;-56
2022/08/03 13:10:06;;;;;;;6.00;2.05;;;;;;;;;;5004869;28;20033;-53
2022/08/03 13:12:52;;;;;;;4.53;1.95;;;;;;;;;;5002445;28;20026;-53
2022/08/03 13:15:37;;;;;;;5.57;2.10;;;;;;;;;;5008694;28;20041;-53
2022/08/03 13:18:23;;;;;;;17.35;2.83;;;;;;;;;;5006198;28;20034;-56
2022/08/03 13:21:09;;;;;;;5.07;2.00;;;;;;;;;;5007028;28;20034;-56
2022/08/03 13:23:55;;;;;;;6.22;2.17;;;;;;;;;;5007436;28;20029;-52
2022/08/03 13:26:40;;;;;;;4.72;1.80;;;;;;;;;;5007870;28;20034;-57
2022/08/03 13:29:26;;;;;;;4.45;1.88;;;;;;;;;;5004162;28;20033;-54
2022/08/03 13:32:12;;;;;;;3.50;2.22;;;;;;;;;;5004317;28;20066;-56
2022/08/03 13:34:58;;;;;;;4.75;2.20;;;;;;;;;;5009135;28;20040;-53
2022/08/03 13:37:43;;;;;;;3.28;1.95;;;;;;;;;;5006924;28;20490;-55
2022/08/03 13:40:31;;;;;;;5.28;2.30;;;;;;;;;;5005124;28;20026;-55
2022/08/03 13:43:16;;;;;;;6.13;2.10;;;;;;;;;;5006694;28;20458;-56
2022/08/03 13:46:02;;;;;;;3.17;1.70;;;;;;;;;;5002534;28;20030;-53
2022/08/03 13:48:48;;;;;;;9.70;2.22;;;;;;;;;;5004447;28;20093;-52
2022/08/03 13:51:34;;;;;;;5.05;2.35;;;;;;;;;;5005506;28;20091;-56
2022/08/03 13:54:19;;;;;;;6.10;1.67;;;;;;;;;;5007487;28;20029;-52
2022/08/03 13:57:05;;;;;;;4.40;1.70;;;;;;;;;;5004913;28;20057;-51
2022/08/03 13:59:51;;;;;;;6.75;1.85;;;;;;;;;;5008403;28;20454;-55
2022/08/03 14:02:36;;;;;;;6.85;2.00;;;;;;;;;;5002525;28;20026;-56
2022/08/03 14:05:22;;;;;;;5.65;1.60;;;;;;;;;;5006386;28;20041;-55
2022/08/03 14:08:09;;;;;;;7.75;1.88;;;;;;;;;;5005264;28;20064;-54
2022/08/03 14:10:55;;;;;;;8.65;1.90;;;;;;;;;;5002348;28;20034;-52
2022/08/03 14:13:41;;;;;;;3.30;1.80;;;;;;;;;;5004696;28;20104;-53
2022/08/03 14:16:27;;;;;;;4.97;2.08;;;;;;;;;;5005063;28;20403;-50
2022/08/03 14:19:14;;;;;;;5.30;1.70;;;;;;;;;;5006598;28;20107;-53
2022/08/03 14:22:00;;;;;;;2.30;1.83;;;;;;;;;;5003756;28;20382;-56
2022/08/03 14:24:46;;;;;;;3.13;2.10;;;;;;;;;;5000207;28;20038;-53
2022/08/03 14:27:31;;;;;;;8.95;1.73;;;;;;;;;;5004599;28;20080;-54
2022/08/03 14:30:17;;;;;;;6.10;1.95;;;;;;;;;;5000379;28;20026;-55
2022/08/03 14:33:03;;;;;;;2.70;1.77;;;;;;;;;;5006741;28;20033;-52
2022/08/03 14:35:50;;;;;;;6.40;2.22;;;;;;;;;;5006260;28;20118;-53
2022/08/03 14:38:35;;;;;;;2.58;1.80;;;;;;;;;;5004648;28;20026;-52
2022/08/03 14:41:21;;;;;;;4.13;1.70;;;;;;;;;;5005387;28;20104;-53
2022/08/03 14:44:07;;;;;;;2.65;1.70;;;;;;;;;;5005291;28;20068;-55
2022/08/03 14:46:53;;;;;;;5.85;1.60;;;;;;;;;;5004616;28;20043;-55
2022/08/03 14:49:38;;;;;;;4.75;1.85;;;;;;;;;;5004368;28;20022;-52
2022/08/03 14:52:24;;;;;;;2.85;1.65;;;;;;;;;;5006452;28;20029;-56
2022/08/03 14:55:10;;;;;;;5.40;1.83;;;;;;;;;;5003711;28;20145;-56
2022/08/03 14:57:56;;;;;;;6.50;1.40;;;;;;;;;;5005401;28;20050;-53
2022/08/03 15:00:41;;;;;;;5.82;1.70;;;;;;;;;;5006176;28;20037;-55
2022/08/03 15:03:27;;;;;;;6.28;2.05;;;;;;;;;;5003691;28;20026;-50
2022/08/03 15:06:13;;;;;;;4.05;1.55;;;;;;;;;;5006330;28;20042;-54
2022/08/03 15:08:58;;;;;;;8.90;2.13;;;;;;;;;;5002686;28;20041;-56
2022/08/03 15:11:44;;;;;;;4.00;1.90;;;;;;;;;;5000389;28;20088;-55
2022/08/03 15:14:30;;;;;;;6.70;1.58;;;;;;;;;;5003496;28;20501;-54
2022/08/03 15:17:16;;;;;;;7.80;1.77;;;;;;;;;;5004729;28;20034;-50
2022/08/03 15:20:03;;;;;;;4.15;1.60;;;;;;;;;;5005424;28;20026;-50
2022/08/03 15:22:49;;;;;;;2.40;1.85;;;;;;;;;;5006554;28;20101;-53
2022/08/03 15:25:34;;;;;;;8.15;2.00;;;;;;;;;;5009474;28;21961;-53
2022/08/03 15:28:20;;;;;;;4.32;1.95;;;;;;;;;;5004586;28;20037;-56
2022/08/03 15:31:06;;;;;;;2.80;1.83;;;;;;;;;;5008173;28;20029;-53
2022/08/03 15:33:52;;;;;;;2.90;1.40;;;;;;;;;;5007413;28;20028;-51
2022/08/03 15:36:37;;;;;;;7.72;1.88;;;;;;;;;;5006510;28;20084;-53
2022/08/03 15:39:23;;;;;;;3.33;1.50;;;;;;;;;;5008308;28;20026;-54
2022/08/03 15:42:09;;;;;;;7.95;1.85;;;;;;;;;;5009764;28;20044;-51
2022/08/03 15:44:54;;;;;;;2.85;1.90;;;;;;;;;;5008883;28;20026;-50
2022/08/03 15:47:40;;;;;;;3.17;1.85;;;;;;;;;;5008530;28;20034;-54
2022/08/03 15:50:26;;;;;;;2.42;1.30;;;;;;;;;;5009945;28;20026;-53
2022/08/03 15:53:12;;;;;;;2.45;1.70;;;;;;;;;;5006392;28;20533;-51
2022/08/03 15:55:57;;;;;;;3.63;1.70;;;;;;;;;;5003516;28;20030;-55
2022/08/03 15:58:43;;;;;;;7.60;1.92;;;;;;;;;;5010873;28;20054;-56
2022/08/03 16:01:29;;;;;;;6.13;2.08;;;;;;;;;;5009538;28;20042;-52
2022/08/03 16:04:15;;;;;;;1.58;1.48;;;;;;;;;;5010548;28;20113;-53
2022/08/03 16:07:00;;;;;;;2.17;1.80;;;;;;;;;;5008686;28;20030;-51
2022/08/03 16:09:46;;;;;;;3.55;2.10;;;;;;;;;;5007989;28;20037;-56
2022/08/03 16:12:32;;;;;;;5.93;2.05;;;;;;;;;;5003961;28;20037;-52
2022/08/03 16:15:18;;;;;;;4.07;1.77;;;;;;;;;;5004116;28;20199;-49
2022/08/03 16:18:07;;;;;;;5.28;1.90;;;;;;;;;;5008959;28;20061;-54
2022/08/03 16:20:52;;;;;;;4.88;1.98;;;;;;;;;;5007085;28;20030;-53
2022/08/03 16:23:39;;;;;;;5.35;1.70;;;;;;;;;;5005874;28;20498;-56
2022/08/03 16:26:25;;;;;;;4.40;2.20;;;;;;;;;;5007341;28;20030;-51
2022/08/03 16:29:10;;;;;;;2.35;1.80;;;;;;;;;;5008347;28;20030;-54
2022/08/03 16:31:56;;;;;;;3.50;1.98;;;;;;;;;;5006101;28;20030;-53
2022/08/03 16:34:42;;;;;;;2.53;1.90;;;;;;;;;;5007979;28;20038;-56
2022/08/03 16:37:28;;;;;;;4.57;1.50;;;;;;;;;;5006537;28;20052;-50
2022/08/03 16:40:14;;;;;;;2.08;1.52;;;;;;;;;;5007816;28;20112;-51
2022/08/03 16:43:00;;;;;;;1.90;1.67;;;;;;;;;;5009648;28;20137;-50
2022/08/03 16:45:46;;;;;;;2.88;1.88;;;;;;;;;;5006962;28;20654;-52
2022/08/03 16:48:32;;;;;;;3.33;1.70;;;;;;;;;;5008596;28;20038;-54
2022/08/03 16:51:19;;;;;;;6.82;2.20;;;;;;;;;;5006798;28;20555;-55
2022/08/03 16:54:06;;;;;;;5.25;1.80;;;;;;;;;;5008037;28;20122;-53